sensor_id;sensor_type;location;lat;lon;timestamp;P1;durP1;ratioP1;P2;durP2;ratioP2
12165;SDS011;6146;48.128;11.476;2022-10-17T00:00:19;3.23;;;2.50;;
12165;SDS011;6146;48.128;11.476;2022-10-17T00:02:45;2.80;;;2.60;;
12165;SDS011;6146;48.128;11.476;2022-10-17T00:05:10;3.80;;;2.70;;
12165;SDS011;6146;48.128;11.476;2022-10-17T00:07:36;2.83;;;2.50;;
12165;SDS011;6146;48.128;11.476;2022-10-17T00:10:02;3.97;;;3.23;;
12165;SDS011;6146;48.128;11.476;2022-10-17T00:12:29;3.13;;;2.80;;
12165;SDS011;6146;48.128;11.476;2022-10-17T00:14:54;5.33;;;2.80;;
12165;SDS011;6146;48.128;11.476;2022-10-17T00:17:20;3.63;;;2.50;;
12165;SDS011;6146;48.128;11.476;2022-10-17T00:19:45;4.07;;;2.47;;
12165;SDS011;6146;48.128;11.476;2022-10-17T00:22:11;4.00;;;3.10;;
12165;SDS011;6146;48.128;11.476;2022-10-17T00:24:37;3.57;;;2.80;;
12165;SDS011;6146;48.128;11.476;2022-10-17T00:27:03;4.40;;;2.97;;
12165;SDS011;6146;48.128;11.476;2022-10-17T00:29:28;4.47;;;2.87;;
12165;SDS011;6146;48.128;11.476;2022-10-17T00:31:54;3.17;;;2.73;;
12165;SDS011;6146;48.128;11.476;2022-10-17T00:34:21;3.37;;;2.87;;
12165;SDS011;6146;48.128;11.476;2022-10-17T00:36:47;4.53;;;2.90;;
12165;SDS011;6146;48.128;11.476;2022-10-17T00:39:13;5.10;;;2.90;;
12165;SDS011;6146;48.128;11.476;2022-10-17T00:41:38;3.47;;;2.63;;
12165;SDS011;6146;48.128;11.476;2022-10-17T00:44:05;5.03;;;3.07;;
12165;SDS011;6146;48.128;11.476;2022-10-17T00:46:51;4.07;;;2.67;;
12165;SDS011;6146;48.128;11.476;2022-10-17T00:49:17;3.63;;;2.47;;
12165;SDS011;6146;48.128;11.476;2022-10-17T00:51:50;5.10;;;3.17;;
12165;SDS011;6146;48.128;11.476;2022-10-17T00:54:19;3.37;;;2.87;;
12165;SDS011;6146;48.128;11.476;2022-10-17T00:56:48;3.17;;;2.87;;
12165;SDS011;6146;48.128;11.476;2022-10-17T00:59:15;4.73;;;3.00;;
12165;SDS011;6146;48.128;11.476;2022-10-17T01:01:46;3.20;;;2.90;;
12165;SDS011;6146;48.128;11.476;2022-10-17T01:04:17;4.27;;;3.00;;
12165;SDS011;6146;48.128;11.476;2022-10-17T01:06:43;5.37;;;2.80;;
12165;SDS011;6146;48.128;11.476;2022-10-17T01:09:09;4.30;;;3.20;;
12165;SDS011;6146;48.128;11.476;2022-10-17T01:15:02;5.23;;;3.07;;
12165;SDS011;6146;48.128;11.476;2022-10-17T01:22:40;3.37;;;3.07;;
12165;SDS011;6146;48.128;11.476;2022-10-17T01:39:09;3.90;;;2.90;;
12165;SDS011;6146;48.128;11.476;2022-10-17T01:41:57;3.70;;;3.27;;
12165;SDS011;6146;48.128;11.476;2022-10-17T01:44:49;5.27;;;2.87;;
12165;SDS011;6146;48.128;11.476;2022-10-17T01:47:28;3.47;;;3.00;;
12165;SDS011;6146;48.128;11.476;2022-10-17T01:49:57;3.83;;;3.17;;
12165;SDS011;6146;48.128;11.476;2022-10-17T01:52:28;3.23;;;2.93;;
12165;SDS011;6146;48.128;11.476;2022-10-17T01:55:10;3.93;;;3.03;;
12165;SDS011;6146;48.128;11.476;2022-10-17T01:57:41;2.97;;;2.67;;
12165;SDS011;6146;48.128;11.476;2022-10-17T02:00:13;4.37;;;3.10;;
12165;SDS011;6146;48.128;11.476;2022-10-17T02:02:42;3.53;;;2.90;;
12165;SDS011;6146;48.128;11.476;2022-10-17T02:05:09;3.23;;;2.50;;
12165;SDS011;6146;48.128;11.476;2022-10-17T02:07:34;2.73;;;2.53;;
12165;SDS011;6146;48.128;11.476;2022-10-17T02:10:01;2.60;;;2.40;;
12165;SDS011;6146;48.128;11.476;2022-10-17T02:20:34;4.97;;;2.77;;
12165;SDS011;6146;48.128;11.476;2022-10-17T02:23:10;3.77;;;2.40;;
12165;SDS011;6146;48.128;11.476;2022-10-17T02:25:55;3.47;;;2.60;;
12165;SDS011;6146;48.128;11.476;2022-10-17T02:28:38;4.90;;;2.83;;
12165;SDS011;6146;48.128;11.476;2022-10-17T02:36:40;4.17;;;3.00;;
12165;SDS011;6146;48.128;11.476;2022-10-17T02:39:10;3.10;;;2.43;;
12165;SDS011;6146;48.128;11.476;2022-10-17T02:41:37;3.10;;;2.80;;
12165;SDS011;6146;48.128;11.476;2022-10-17T02:44:04;5.90;;;3.20;;
12165;SDS011;6146;48.128;11.476;2022-10-17T02:46:31;2.90;;;2.47;;
12165;SDS011;6146;48.128;11.476;2022-10-17T02:49:04;4.37;;;2.70;;
12165;SDS011;6146;48.128;11.476;2022-10-17T02:51:44;3.13;;;2.43;;
12165;SDS011;6146;48.128;11.476;2022-10-17T02:57:26;2.73;;;2.50;;
12165;SDS011;6146;48.128;11.476;2022-10-17T02:59:53;3.87;;;2.67;;
12165;SDS011;6146;48.128;11.476;2022-10-17T03:02:22;3.47;;;2.63;;
12165;SDS011;6146;48.128;11.476;2022-10-17T03:04:48;2.60;;;2.40;;
12165;SDS011;6146;48.128;11.476;2022-10-17T03:07:14;3.23;;;2.40;;
12165;SDS011;6146;48.128;11.476;2022-10-17T03:09:39;5.60;;;2.80;;
12165;SDS011;6146;48.128;11.476;2022-10-17T03:12:05;3.67;;;2.67;;
12165;SDS011;6146;48.128;11.476;2022-10-17T03:14:30;3.33;;;2.57;;
12165;SDS011;6146;48.128;11.476;2022-10-17T03:16:56;3.67;;;2.47;;
12165;SDS011;6146;48.128;11.476;2022-10-17T03:19:21;4.30;;;3.47;;
12165;SDS011;6146;48.128;11.476;2022-10-17T03:21:47;2.57;;;2.37;;
12165;SDS011;6146;48.128;11.476;2022-10-17T03:24:13;7.43;;;3.07;;
12165;SDS011;6146;48.128;11.476;2022-10-17T03:26:38;4.47;;;2.43;;
12165;SDS011;6146;48.128;11.476;2022-10-17T03:29:04;4.50;;;2.60;;
12165;SDS011;6146;48.128;11.476;2022-10-17T03:31:29;3.57;;;2.77;;
12165;SDS011;6146;48.128;11.476;2022-10-17T03:33:55;4.10;;;2.90;;
12165;SDS011;6146;48.128;11.476;2022-10-17T03:36:20;6.43;;;2.70;;
12165;SDS011;6146;48.128;11.476;2022-10-17T03:38:46;4.73;;;2.50;;
12165;SDS011;6146;48.128;11.476;2022-10-17T03:41:12;3.77;;;2.50;;
12165;SDS011;6146;48.128;11.476;2022-10-17T03:43:38;3.47;;;2.70;;
12165;SDS011;6146;48.128;11.476;2022-10-17T03:46:03;3.47;;;2.50;;
12165;SDS011;6146;48.128;11.476;2022-10-17T03:48:30;3.90;;;3.17;;
12165;SDS011;6146;48.128;11.476;2022-10-17T03:50:59;3.70;;;2.30;;
12165;SDS011;6146;48.128;11.476;2022-10-17T03:53:26;4.67;;;2.77;;
12165;SDS011;6146;48.128;11.476;2022-10-17T03:55:52;3.87;;;2.90;;
12165;SDS011;6146;48.128;11.476;2022-10-17T03:58:18;7.47;;;3.13;;
12165;SDS011;6146;48.128;11.476;2022-10-17T04:00:43;3.40;;;2.83;;
12165;SDS011;6146;48.128;11.476;2022-10-17T04:03:09;4.27;;;2.60;;
12165;SDS011;6146;48.128;11.476;2022-10-17T04:05:34;4.37;;;2.70;;
12165;SDS011;6146;48.128;11.476;2022-10-17T04:08:00;4.10;;;3.27;;
12165;SDS011;6146;48.128;11.476;2022-10-17T04:10:25;3.80;;;3.10;;
12165;SDS011;6146;48.128;11.476;2022-10-17T04:12:51;5.23;;;3.17;;
12165;SDS011;6146;48.128;11.476;2022-10-17T04:15:17;4.20;;;2.80;;
12165;SDS011;6146;48.128;11.476;2022-10-17T04:17:42;2.73;;;2.47;;
12165;SDS011;6146;48.128;11.476;2022-10-17T04:20:08;4.03;;;3.00;;
12165;SDS011;6146;48.128;11.476;2022-10-17T04:22:34;3.63;;;2.80;;
12165;SDS011;6146;48.128;11.476;2022-10-17T04:24:59;7.83;;;3.37;;
12165;SDS011;6146;48.128;11.476;2022-10-17T04:27:25;4.80;;;3.27;;
12165;SDS011;6146;48.128;11.476;2022-10-17T04:29:50;4.33;;;3.00;;
12165;SDS011;6146;48.128;11.476;2022-10-17T04:32:16;5.10;;;3.40;;
12165;SDS011;6146;48.128;11.476;2022-10-17T04:34:41;3.13;;;2.83;;
12165;SDS011;6146;48.128;11.476;2022-10-17T04:37:07;3.47;;;3.03;;
12165;SDS011;6146;48.128;11.476;2022-10-17T04:39:32;5.67;;;3.47;;
12165;SDS011;6146;48.128;11.476;2022-10-17T04:41:58;3.73;;;3.03;;
12165;SDS011;6146;48.128;11.476;2022-10-17T04:44:23;4.37;;;3.10;;
12165;SDS011;6146;48.128;11.476;2022-10-17T04:46:49;4.13;;;3.60;;
12165;SDS011;6146;48.128;11.476;2022-10-17T04:49:15;5.13;;;3.17;;
12165;SDS011;6146;48.128;11.476;2022-10-17T04:51:40;8.27;;;3.73;;
12165;SDS011;6146;48.128;11.476;2022-10-17T04:54:06;4.67;;;3.43;;
12165;SDS011;6146;48.128;11.476;2022-10-17T04:56:31;4.77;;;3.30;;
12165;SDS011;6146;48.128;11.476;2022-10-17T04:58:57;4.70;;;2.73;;
12165;SDS011;6146;48.128;11.476;2022-10-17T05:01:24;4.63;;;2.83;;
12165;SDS011;6146;48.128;11.476;2022-10-17T05:03:50;4.20;;;3.53;;
12165;SDS011;6146;48.128;11.476;2022-10-17T05:06:21;3.73;;;3.10;;
12165;SDS011;6146;48.128;11.476;2022-10-17T05:08:47;6.20;;;3.23;;
12165;SDS011;6146;48.128;11.476;2022-10-17T05:11:17;4.70;;;3.30;;
12165;SDS011;6146;48.128;11.476;2022-10-17T05:13:50;3.77;;;3.07;;
12165;SDS011;6146;48.128;11.476;2022-10-17T05:16:17;6.17;;;3.30;;
12165;SDS011;6146;48.128;11.476;2022-10-17T05:18:43;7.20;;;3.30;;
12165;SDS011;6146;48.128;11.476;2022-10-17T05:21:12;3.97;;;3.17;;
12165;SDS011;6146;48.128;11.476;2022-10-17T05:23:38;5.37;;;3.70;;
12165;SDS011;6146;48.128;11.476;2022-10-17T05:26:04;8.93;;;3.70;;
12165;SDS011;6146;48.128;11.476;2022-10-17T05:28:29;5.70;;;3.43;;
12165;SDS011;6146;48.128;11.476;2022-10-17T05:30:55;4.33;;;3.77;;
12165;SDS011;6146;48.128;11.476;2022-10-17T05:33:21;5.93;;;3.27;;
12165;SDS011;6146;48.128;11.476;2022-10-17T05:35:47;4.40;;;3.27;;
12165;SDS011;6146;48.128;11.476;2022-10-17T05:38:12;6.27;;;3.67;;
12165;SDS011;6146;48.128;11.476;2022-10-17T05:40:38;5.07;;;3.40;;
12165;SDS011;6146;48.128;11.476;2022-10-17T05:43:04;4.50;;;3.37;;
12165;SDS011;6146;48.128;11.476;2022-10-17T05:45:29;6.20;;;4.07;;
12165;SDS011;6146;48.128;11.476;2022-10-17T05:47:55;4.20;;;3.60;;
12165;SDS011;6146;48.128;11.476;2022-10-17T05:50:20;4.30;;;3.47;;
12165;SDS011;6146;48.128;11.476;2022-10-17T05:52:51;5.57;;;3.70;;
12165;SDS011;6146;48.128;11.476;2022-10-17T05:55:17;5.07;;;3.80;;
12165;SDS011;6146;48.128;11.476;2022-10-17T05:57:43;5.83;;;3.93;;
12165;SDS011;6146;48.128;11.476;2022-10-17T06:00:09;5.87;;;5.00;;
12165;SDS011;6146;48.128;11.476;2022-10-17T06:02:35;7.77;;;4.40;;
12165;SDS011;6146;48.128;11.476;2022-10-17T06:05:00;5.10;;;4.50;;
12165;SDS011;6146;48.128;11.476;2022-10-17T06:07:26;6.57;;;4.43;;
12165;SDS011;6146;48.128;11.476;2022-10-17T06:09:51;7.50;;;5.00;;
12165;SDS011;6146;48.128;11.476;2022-10-17T06:12:17;6.50;;;5.30;;
12165;SDS011;6146;48.128;11.476;2022-10-17T06:14:42;7.03;;;5.70;;
12165;SDS011;6146;48.128;11.476;2022-10-17T06:17:08;8.50;;;5.60;;
12165;SDS011;6146;48.128;11.476;2022-10-17T06:19:33;9.47;;;5.50;;
12165;SDS011;6146;48.128;11.476;2022-10-17T06:21:59;6.83;;;5.63;;
12165;SDS011;6146;48.128;11.476;2022-10-17T06:24:25;7.13;;;5.80;;
12165;SDS011;6146;48.128;11.476;2022-10-17T06:26:50;9.43;;;7.00;;
12165;SDS011;6146;48.128;11.476;2022-10-17T06:29:16;10.87;;;7.07;;
12165;SDS011;6146;48.128;11.476;2022-10-17T06:31:41;11.47;;;9.40;;
12165;SDS011;6146;48.128;11.476;2022-10-17T06:34:07;11.10;;;9.43;;
12165;SDS011;6146;48.128;11.476;2022-10-17T06:36:33;12.70;;;8.17;;
12165;SDS011;6146;48.128;11.476;2022-10-17T06:38:59;9.37;;;6.83;;
12165;SDS011;6146;48.128;11.476;2022-10-17T06:41:24;7.73;;;6.10;;
12165;SDS011;6146;48.128;11.476;2022-10-17T06:43:50;6.73;;;5.63;;
12165;SDS011;6146;48.128;11.476;2022-10-17T06:46:16;8.03;;;4.90;;
12165;SDS011;6146;48.128;11.476;2022-10-17T06:48:43;5.77;;;4.47;;
12165;SDS011;6146;48.128;11.476;2022-10-17T06:51:09;9.00;;;5.27;;
12165;SDS011;6146;48.128;11.476;2022-10-17T06:53:36;5.33;;;4.70;;
12165;SDS011;6146;48.128;11.476;2022-10-17T06:56:03;8.10;;;5.27;;
12165;SDS011;6146;48.128;11.476;2022-10-17T06:58:31;7.03;;;4.50;;
12165;SDS011;6146;48.128;11.476;2022-10-17T07:00:59;9.00;;;4.93;;
12165;SDS011;6146;48.128;11.476;2022-10-17T07:03:34;8.80;;;5.00;;
12165;SDS011;6146;48.128;11.476;2022-10-17T07:06:01;5.00;;;4.00;;
12165;SDS011;6146;48.128;11.476;2022-10-17T07:08:26;3.83;;;3.53;;
12165;SDS011;6146;48.128;11.476;2022-10-17T07:10:52;5.37;;;3.60;;
12165;SDS011;6146;48.128;11.476;2022-10-17T07:13:18;5.67;;;4.27;;
12165;SDS011;6146;48.128;11.476;2022-10-17T07:15:43;5.70;;;4.10;;
12165;SDS011;6146;48.128;11.476;2022-10-17T07:18:10;4.28;;;3.53;;
12165;SDS011;6146;48.128;11.476;2022-10-17T07:20:35;4.17;;;3.50;;
12165;SDS011;6146;48.128;11.476;2022-10-17T07:23:01;6.35;;;3.78;;
12165;SDS011;6146;48.128;11.476;2022-10-17T07:25:27;5.88;;;3.38;;
12165;SDS011;6146;48.128;11.476;2022-10-17T07:27:53;5.13;;;3.40;;
12165;SDS011;6146;48.128;11.476;2022-10-17T07:30:19;3.70;;;2.90;;
12165;SDS011;6146;48.128;11.476;2022-10-17T07:32:45;2.97;;;2.67;;
12165;SDS011;6146;48.128;11.476;2022-10-17T07:35:11;4.22;;;3.10;;
12165;SDS011;6146;48.128;11.476;2022-10-17T07:37:37;5.43;;;2.90;;
12165;SDS011;6146;48.128;11.476;2022-10-17T07:40:03;6.22;;;3.00;;
12165;SDS011;6146;48.128;11.476;2022-10-17T07:42:30;3.67;;;2.88;;
12165;SDS011;6146;48.128;11.476;2022-10-17T07:44:56;4.75;;;3.00;;
12165;SDS011;6146;48.128;11.476;2022-10-17T07:47:22;3.78;;;3.05;;
12165;SDS011;6146;48.128;11.476;2022-10-17T07:49:47;6.25;;;3.15;;
12165;SDS011;6146;48.128;11.476;2022-10-17T07:52:13;5.40;;;3.22;;
12165;SDS011;6146;48.128;11.476;2022-10-17T07:54:39;4.40;;;3.40;;
12165;SDS011;6146;48.128;11.476;2022-10-17T07:57:05;4.45;;;2.72;;
12165;SDS011;6146;48.128;11.476;2022-10-17T07:59:32;4.38;;;2.50;;
12165;SDS011;6146;48.128;11.476;2022-10-17T08:01:58;7.63;;;2.90;;
12165;SDS011;6146;48.128;11.476;2022-10-17T08:04:24;3.10;;;2.17;;
12165;SDS011;6146;48.128;11.476;2022-10-17T08:06:51;4.05;;;2.30;;
12165;SDS011;6146;48.128;11.476;2022-10-17T08:09:17;9.27;;;2.50;;
12165;SDS011;6146;48.128;11.476;2022-10-17T08:11:43;4.47;;;2.40;;
12165;SDS011;6146;48.128;11.476;2022-10-17T08:14:09;2.55;;;2.33;;
12165;SDS011;6146;48.128;11.476;2022-10-17T08:16:36;4.32;;;2.40;;
12165;SDS011;6146;48.128;11.476;2022-10-17T08:19:02;2.90;;;2.28;;
12165;SDS011;6146;48.128;11.476;2022-10-17T08:21:28;3.72;;;2.53;;
12165;SDS011;6146;48.128;11.476;2022-10-17T08:23:54;2.92;;;2.40;;
12165;SDS011;6146;48.128;11.476;2022-10-17T08:26:20;2.65;;;2.03;;
12165;SDS011;6146;48.128;11.476;2022-10-17T08:28:46;2.15;;;1.90;;
12165;SDS011;6146;48.128;11.476;2022-10-17T08:31:13;4.80;;;2.28;;
12165;SDS011;6146;48.128;11.476;2022-10-17T08:33:42;3.58;;;2.00;;
12165;SDS011;6146;48.128;11.476;2022-10-17T08:36:09;2.28;;;1.95;;
12165;SDS011;6146;48.128;11.476;2022-10-17T08:38:37;3.25;;;2.28;;
12165;SDS011;6146;48.128;11.476;2022-10-17T08:41:06;2.83;;;2.25;;
12165;SDS011;6146;48.128;11.476;2022-10-17T08:46:29;5.03;;;2.13;;
12165;SDS011;6146;48.128;11.476;2022-10-17T08:49:09;2.45;;;2.22;;
12165;SDS011;6146;48.128;11.476;2022-10-17T08:51:43;3.70;;;2.13;;
12165;SDS011;6146;48.128;11.476;2022-10-17T08:54:16;3.15;;;1.98;;
12165;SDS011;6146;48.128;11.476;2022-10-17T08:56:48;4.18;;;2.20;;
12165;SDS011;6146;48.128;11.476;2022-10-17T08:59:26;1.98;;;1.77;;
12165;SDS011;6146;48.128;11.476;2022-10-17T09:09:43;1.95;;;1.75;;
12165;SDS011;6146;48.128;11.476;2022-10-17T09:12:37;2.28;;;1.90;;
12165;SDS011;6146;48.128;11.476;2022-10-17T09:18:19;1.98;;;1.77;;
12165;SDS011;6146;48.128;11.476;2022-10-17T09:20:53;2.75;;;1.75;;
12165;SDS011;6146;48.128;11.476;2022-10-17T09:23:26;2.20;;;2.00;;
12165;SDS011;6146;48.128;11.476;2022-10-17T09:26:00;2.38;;;1.90;;
12165;SDS011;6146;48.128;11.476;2022-10-17T09:28:33;2.60;;;1.85;;
12165;SDS011;6146;48.128;11.476;2022-10-17T09:33:42;2.05;;;1.60;;
12165;SDS011;6146;48.128;11.476;2022-10-17T09:36:19;2.63;;;1.90;;
12165;SDS011;6146;48.128;11.476;2022-10-17T09:38:48;3.95;;;1.90;;
12165;SDS011;6146;48.128;11.476;2022-10-17T09:41:21;2.05;;;1.85;;
12165;SDS011;6146;48.128;11.476;2022-10-17T09:44:10;2.78;;;1.88;;
12165;SDS011;6146;48.128;11.476;2022-10-17T09:46:39;2.08;;;1.80;;
12165;SDS011;6146;48.128;11.476;2022-10-17T09:49:13;2.40;;;1.80;;
12165;SDS011;6146;48.128;11.476;2022-10-17T09:51:42;2.10;;;1.75;;
12165;SDS011;6146;48.128;11.476;2022-10-17T09:54:19;2.25;;;2.05;;
12165;SDS011;6146;48.128;11.476;2022-10-17T09:59:47;2.20;;;2.00;;
12165;SDS011;6146;48.128;11.476;2022-10-17T10:02:23;2.28;;;1.58;;
12165;SDS011;6146;48.128;11.476;2022-10-17T10:04:51;2.30;;;1.67;;
12165;SDS011;6146;48.128;11.476;2022-10-17T10:07:31;9.65;;;5.10;;
12165;SDS011;6146;48.128;11.476;2022-10-17T10:09:59;2.63;;;2.38;;
12165;SDS011;6146;48.128;11.476;2022-10-17T10:12:31;4.20;;;2.55;;
12165;SDS011;6146;48.128;11.476;2022-10-17T10:15:05;2.70;;;2.20;;
12165;SDS011;6146;48.128;11.476;2022-10-17T10:21:02;2.72;;;1.90;;
12165;SDS011;6146;48.128;11.476;2022-10-17T10:23:36;1.88;;;1.70;;
12165;SDS011;6146;48.128;11.476;2022-10-17T10:26:16;1.98;;;1.73;;
12165;SDS011;6146;48.128;11.476;2022-10-17T10:28:52;4.95;;;1.83;;
12165;SDS011;6146;48.128;11.476;2022-10-17T10:31:31;1.63;;;1.52;;
12165;SDS011;6146;48.128;11.476;2022-10-17T10:33:58;3.35;;;1.70;;
12165;SDS011;6146;48.128;11.476;2022-10-17T10:36:25;2.42;;;1.60;;
12165;SDS011;6146;48.128;11.476;2022-10-17T10:39:07;2.08;;;1.80;;
12165;SDS011;6146;48.128;11.476;2022-10-17T10:41:48;3.47;;;2.00;;
12165;SDS011;6146;48.128;11.476;2022-10-17T10:44:13;2.40;;;1.88;;
12165;SDS011;6146;48.128;11.476;2022-10-17T10:46:51;26.38;;;7.47;;
12165;SDS011;6146;48.128;11.476;2022-10-17T10:49:51;1.83;;;1.55;;
12165;SDS011;6146;48.128;11.476;2022-10-17T10:52:31;2.45;;;1.80;;
12165;SDS011;6146;48.128;11.476;2022-10-17T10:55:13;2.38;;;1.50;;
12165;SDS011;6146;48.128;11.476;2022-10-17T10:57:42;2.90;;;1.60;;
12165;SDS011;6146;48.128;11.476;2022-10-17T11:00:18;1.85;;;1.50;;
12165;SDS011;6146;48.128;11.476;2022-10-17T11:02:52;1.73;;;1.60;;
12165;SDS011;6146;48.128;11.476;2022-10-17T11:07:50;1.70;;;1.60;;
12165;SDS011;6146;48.128;11.476;2022-10-17T11:13:16;1.70;;;1.60;;
12165;SDS011;6146;48.128;11.476;2022-10-17T11:15:52;1.35;;;1.25;;
12165;SDS011;6146;48.128;11.476;2022-10-17T11:18:47;1.70;;;1.60;;
12165;SDS011;6146;48.128;11.476;2022-10-17T11:24:23;2.30;;;1.50;;
12165;SDS011;6146;48.128;11.476;2022-10-17T11:27:02;1.70;;;1.60;;
12165;SDS011;6146;48.128;11.476;2022-10-17T11:29:30;1.52;;;1.33;;
12165;SDS011;6146;48.128;11.476;2022-10-17T11:31:59;2.45;;;1.70;;
12165;SDS011;6146;48.128;11.476;2022-10-17T11:34:35;2.22;;;1.60;;
12165;SDS011;6146;48.128;11.476;2022-10-17T11:37:16;2.15;;;1.48;;
12165;SDS011;6146;48.128;11.476;2022-10-17T11:42:15;1.45;;;1.30;;
12165;SDS011;6146;48.128;11.476;2022-10-17T11:45:04;2.08;;;1.40;;
12165;SDS011;6146;48.128;11.476;2022-10-17T11:53:07;8.07;;;2.17;;
12165;SDS011;6146;48.128;11.476;2022-10-17T11:55:36;1.17;;;1.13;;
12165;SDS011;6146;48.128;11.476;2022-10-17T11:58:08;5.30;;;1.60;;
12165;SDS011;6146;48.128;11.476;2022-10-17T12:06:41;1.50;;;1.40;;
12165;SDS011;6146;48.128;11.476;2022-10-17T12:09:25;1.30;;;1.20;;
12165;SDS011;6146;48.128;11.476;2022-10-17T12:12:02;1.67;;;1.58;;
12165;SDS011;6146;48.128;11.476;2022-10-17T12:14:39;3.22;;;1.45;;
12165;SDS011;6146;48.128;11.476;2022-10-17T12:23:05;2.13;;;1.30;;
12165;SDS011;6146;48.128;11.476;2022-10-17T12:28:16;2.65;;;1.90;;
12165;SDS011;6146;48.128;11.476;2022-10-17T12:30:56;2.03;;;1.40;;
12165;SDS011;6146;48.128;11.476;2022-10-17T12:38:43;2.65;;;1.50;;
12165;SDS011;6146;48.128;11.476;2022-10-17T12:41:09;1.95;;;1.52;;
12165;SDS011;6146;48.128;11.476;2022-10-17T12:43:36;53.30;;;15.43;;
12165;SDS011;6146;48.128;11.476;2022-10-17T12:46:40;1.38;;;1.20;;
12165;SDS011;6146;48.128;11.476;2022-10-17T12:49:23;2.58;;;1.45;;
12165;SDS011;6146;48.128;11.476;2022-10-17T12:52:20;1.77;;;1.33;;
12165;SDS011;6146;48.128;11.476;2022-10-17T13:00:20;4.20;;;1.58;;
12165;SDS011;6146;48.128;11.476;2022-10-17T13:02:47;1.88;;;1.27;;
12165;SDS011;6146;48.128;11.476;2022-10-17T13:05:26;1.63;;;1.10;;
12165;SDS011;6146;48.128;11.476;2022-10-17T13:07:54;12.98;;;4.63;;
12165;SDS011;6146;48.128;11.476;2022-10-17T13:10:25;1.52;;;1.42;;
12165;SDS011;6146;48.128;11.476;2022-10-17T13:12:53;1.95;;;1.30;;
12165;SDS011;6146;48.128;11.476;2022-10-17T13:15:46;4.25;;;2.90;;
12165;SDS011;6146;48.128;11.476;2022-10-17T13:18:26;1.77;;;1.35;;
12165;SDS011;6146;48.128;11.476;2022-10-17T13:21:00;9.00;;;5.07;;
12165;SDS011;6146;48.128;11.476;2022-10-17T13:23:34;1.75;;;1.55;;
12165;SDS011;6146;48.128;11.476;2022-10-17T13:26:01;1.80;;;1.40;;
12165;SDS011;6146;48.128;11.476;2022-10-17T13:28:42;1.60;;;1.50;;
12165;SDS011;6146;48.128;11.476;2022-10-17T13:31:24;1.90;;;1.60;;
12165;SDS011;6146;48.128;11.476;2022-10-17T13:33:54;2.20;;;2.00;;
12165;SDS011;6146;48.128;11.476;2022-10-17T13:36:21;2.05;;;1.63;;
12165;SDS011;6146;48.128;11.476;2022-10-17T13:38:48;3.65;;;1.80;;
12165;SDS011;6146;48.128;11.476;2022-10-17T13:41:14;4.30;;;2.00;;
12165;SDS011;6146;48.128;11.476;2022-10-17T13:43:42;3.58;;;1.80;;
12165;SDS011;6146;48.128;11.476;2022-10-17T13:46:11;2.10;;;1.90;;
12165;SDS011;6146;48.128;11.476;2022-10-17T13:48:43;1.97;;;1.77;;
12165;SDS011;6146;48.128;11.476;2022-10-17T13:51:09;3.27;;;2.00;;
12165;SDS011;6146;48.128;11.476;2022-10-17T13:53:37;2.23;;;1.93;;
12165;SDS011;6146;48.128;11.476;2022-10-17T13:56:16;2.47;;;2.27;;
12165;SDS011;6146;48.128;11.476;2022-10-17T13:58:46;2.27;;;2.00;;
12165;SDS011;6146;48.128;11.476;2022-10-17T14:01:13;2.00;;;1.77;;
12165;SDS011;6146;48.128;11.476;2022-10-17T14:03:43;3.20;;;2.10;;
12165;SDS011;6146;48.128;11.476;2022-10-17T14:08:36;1.93;;;1.77;;
12165;SDS011;6146;48.128;11.476;2022-10-17T14:11:12;2.87;;;1.87;;
12165;SDS011;6146;48.128;11.476;2022-10-17T14:13:39;3.13;;;1.83;;
12165;SDS011;6146;48.128;11.476;2022-10-17T14:16:05;3.10;;;2.07;;
12165;SDS011;6146;48.128;11.476;2022-10-17T14:18:33;3.13;;;1.80;;
12165;SDS011;6146;48.128;11.476;2022-10-17T14:21:00;2.30;;;1.70;;
12165;SDS011;6146;48.128;11.476;2022-10-17T14:23:27;2.20;;;1.67;;
12165;SDS011;6146;48.128;11.476;2022-10-17T14:26:05;3.93;;;2.10;;
12165;SDS011;6146;48.128;11.476;2022-10-17T14:28:43;5.63;;;1.87;;
12165;SDS011;6146;48.128;11.476;2022-10-17T14:31:11;3.33;;;1.90;;
12165;SDS011;6146;48.128;11.476;2022-10-17T14:33:44;2.60;;;2.10;;
12165;SDS011;6146;48.128;11.476;2022-10-17T14:36:11;3.63;;;1.63;;
12165;SDS011;6146;48.128;11.476;2022-10-17T14:38:38;3.33;;;1.87;;
12165;SDS011;6146;48.128;11.476;2022-10-17T14:41:14;3.70;;;1.90;;
12165;SDS011;6146;48.128;11.476;2022-10-17T14:44:06;3.83;;;2.10;;
12165;SDS011;6146;48.128;11.476;2022-10-17T14:46:42;2.60;;;1.90;;
12165;SDS011;6146;48.128;11.476;2022-10-17T14:49:16;3.83;;;1.70;;
12165;SDS011;6146;48.128;11.476;2022-10-17T14:52:50;2.00;;;1.80;;
12165;SDS011;6146;48.128;11.476;2022-10-17T14:54:45;2.30;;;1.77;;
12165;SDS011;6146;48.128;11.476;2022-10-17T14:57:22;2.90;;;2.00;;
12165;SDS011;6146;48.128;11.476;2022-10-17T14:59:50;3.17;;;1.90;;
12165;SDS011;6146;48.128;11.476;2022-10-17T15:02:17;2.63;;;1.90;;
12165;SDS011;6146;48.128;11.476;2022-10-17T15:04:42;3.20;;;1.83;;
12165;SDS011;6146;48.128;11.476;2022-10-17T15:07:12;1.70;;;1.60;;
12165;SDS011;6146;48.128;11.476;2022-10-17T15:09:39;2.60;;;2.40;;
12165;SDS011;6146;48.128;11.476;2022-10-17T15:12:06;3.90;;;2.33;;
12165;SDS011;6146;48.128;11.476;2022-10-17T15:14:36;1.83;;;1.73;;
12165;SDS011;6146;48.128;11.476;2022-10-17T15:17:04;2.63;;;2.10;;
12165;SDS011;6146;48.128;11.476;2022-10-17T15:19:36;4.10;;;2.00;;
12165;SDS011;6146;48.128;11.476;2022-10-17T15:22:01;3.03;;;1.90;;
12165;SDS011;6146;48.128;11.476;2022-10-17T15:24:27;2.13;;;1.93;;
12165;SDS011;6146;48.128;11.476;2022-10-17T15:26:52;2.40;;;2.00;;
12165;SDS011;6146;48.128;11.476;2022-10-17T15:29:18;3.30;;;1.97;;
12165;SDS011;6146;48.128;11.476;2022-10-17T15:31:44;2.27;;;1.90;;
12165;SDS011;6146;48.128;11.476;2022-10-17T15:34:09;2.53;;;2.00;;
12165;SDS011;6146;48.128;11.476;2022-10-17T15:36:39;2.20;;;2.00;;
12165;SDS011;6146;48.128;11.476;2022-10-17T15:39:06;3.80;;;2.17;;
12165;SDS011;6146;48.128;11.476;2022-10-17T15:41:33;2.57;;;2.30;;
12165;SDS011;6146;48.128;11.476;2022-10-17T15:43:59;2.47;;;2.20;;
12165;SDS011;6146;48.128;11.476;2022-10-17T15:46:26;4.00;;;2.27;;
12165;SDS011;6146;48.128;11.476;2022-10-17T15:48:54;4.33;;;3.07;;
12165;SDS011;6146;48.128;11.476;2022-10-17T15:51:22;4.13;;;3.40;;
12165;SDS011;6146;48.128;11.476;2022-10-17T15:53:48;4.77;;;3.20;;
12165;SDS011;6146;48.128;11.476;2022-10-17T15:56:59;3.47;;;2.70;;
12165;SDS011;6146;48.128;11.476;2022-10-17T15:59:04;4.67;;;2.50;;
12165;SDS011;6146;48.128;11.476;2022-10-17T16:01:42;4.83;;;2.70;;
12165;SDS011;6146;48.128;11.476;2022-10-17T16:04:08;5.57;;;2.83;;
12165;SDS011;6146;48.128;11.476;2022-10-17T16:06:39;2.63;;;2.40;;
12165;SDS011;6146;48.128;11.476;2022-10-17T16:09:06;6.03;;;3.57;;
12165;SDS011;6146;48.128;11.476;2022-10-17T16:11:36;5.87;;;4.20;;
12165;SDS011;6146;48.128;11.476;2022-10-17T16:14:05;5.27;;;3.90;;
12165;SDS011;6146;48.128;11.476;2022-10-17T16:16:32;5.30;;;4.20;;
12165;SDS011;6146;48.128;11.476;2022-10-17T16:18:57;6.97;;;3.90;;
12165;SDS011;6146;48.128;11.476;2022-10-17T16:21:28;5.67;;;4.60;;
12165;SDS011;6146;48.128;11.476;2022-10-17T16:23:55;9.77;;;4.93;;
12165;SDS011;6146;48.128;11.476;2022-10-17T16:26:21;7.40;;;5.07;;
12165;SDS011;6146;48.128;11.476;2022-10-17T16:28:47;7.47;;;4.90;;
12165;SDS011;6146;48.128;11.476;2022-10-17T16:31:17;6.80;;;5.47;;
12165;SDS011;6146;48.128;11.476;2022-10-17T16:33:49;8.10;;;6.00;;
12165;SDS011;6146;48.128;11.476;2022-10-17T16:36:16;7.60;;;6.10;;
12165;SDS011;6146;48.128;11.476;2022-10-17T16:38:42;7.07;;;5.50;;
12165;SDS011;6146;48.128;11.476;2022-10-17T16:41:50;5.57;;;4.73;;
12165;SDS011;6146;48.128;11.476;2022-10-17T16:43:58;11.67;;;8.53;;
12165;SDS011;6146;48.128;11.476;2022-10-17T16:46:26;6.90;;;5.20;;
12165;SDS011;6146;48.128;11.476;2022-10-17T16:48:52;8.67;;;5.63;;